Time;durP1;ratioP1;P1;durP2;ratioP2;P2;SDS_P1;SDS_P2;PMS_P1;PMS_P2;Temp;Humidity;BMP_temperature;BMP_pressure;BME280_temperature;BME280_humidity;BME280_pressure;Samples;Min_cycle;Max_cycle;Signal;HPM_P1;HPM_P2
2022/01/09 00:00:02;457367.00;1.52;788.46;0.00;0.00;0.62;;;;;8.50;1.00;;;;;;2264449;61;1119;-88
2022/01/09 00:02:30;361600.00;1.21;623.80;0.00;0.00;0.62;;;;;8.00;1.00;;;;;;2264463;61;1361;-88
2022/01/09 00:04:57;577757.00;1.93;995.83;0.00;0.00;0.62;;;;;7.50;1.00;;;;;;2264406;61;1463;-86
2022/01/09 00:07:24;339079.00;1.13;585.09;0.00;0.00;0.62;;;;;7.30;1.00;;;;;;2264164;61;1209;-86
2022/01/09 00:09:51;423161.00;1.41;729.63;0.00;0.00;0.62;;;;;7.60;1.00;;;;;;2264466;61;1021;-85
2022/01/09 00:12:18;485939.00;1.62;837.62;0.00;0.00;0.62;;;;;8.30;1.00;;;;;;2264440;61;1400;-85
2022/01/09 00:14:45;344190.00;1.15;593.88;0.00;0.00;0.62;;;;;8.20;1.00;;;;;;2264498;61;1197;-86
2022/01/09 00:17:12;304343.00;1.01;525.39;0.00;0.00;0.62;;;;;8.20;1.00;;;;;;2264503;61;1991;-87
2022/01/09 00:19:41;316535.00;1.06;546.34;0.00;0.00;0.62;;;;;8.30;1.00;;;;;;2264031;61;1202;-87
2022/01/09 00:22:08;372537.00;1.24;642.60;0.00;0.00;0.62;;;;;8.60;1.00;;;;;;2263302;61;1281;-86
2022/01/09 00:24:35;395180.00;1.32;681.52;0.00;0.00;0.62;;;;;8.40;1.00;;;;;;2263068;61;1034;-86
2022/01/09 00:27:02;229537.00;0.77;396.75;0.00;0.00;0.62;;;;;8.50;1.00;;;;;;2264214;61;1172;-86
2022/01/09 00:29:29;333151.00;1.11;574.90;0.00;0.00;0.62;;;;;8.70;1.00;;;;;;2263144;61;1728;-86
2022/01/09 00:31:55;355503.00;1.19;613.32;0.00;0.00;0.62;;;;;8.50;1.00;;;;;;2262856;61;1384;-85
2022/01/09 00:34:22;315202.00;1.05;544.05;0.00;0.00;0.62;;;;;8.50;1.00;;;;;;2262749;61;1129;-86
2022/01/09 00:36:51;293503.00;0.98;506.75;0.00;0.00;0.62;;;;;9.00;1.00;;;;;;2262738;61;1216;-85
2022/01/09 00:39:17;297292.00;0.99;513.26;0.00;0.00;0.62;;;;;8.70;1.00;;;;;;2262762;61;1954;-86
2022/01/09 00:41:44;302405.00;1.01;522.05;0.00;0.00;0.62;;;;;8.20;1.00;;;;;;2262753;61;1388;-86
2022/01/09 00:44:11;318549.00;1.06;549.80;0.00;0.00;0.62;;;;;8.30;1.00;;;;;;2263550;61;1572;-86
2022/01/09 00:46:38;307654.00;1.03;531.08;0.00;0.00;0.62;;;;;8.70;1.00;;;;;;2264259;61;1080;-86
2022/01/09 00:49:05;294118.00;0.98;507.81;0.00;0.00;0.62;;;;;8.80;1.00;;;;;;2264164;61;1128;-86
2022/01/09 00:51:32;490479.00;1.63;845.43;0.00;0.00;0.62;;;;;8.70;1.00;;;;;;2264100;61;1279;-86
2022/01/09 00:54:01;374261.00;1.25;645.56;0.00;0.00;0.62;;;;;9.00;1.00;;;;;;2264195;61;1305;-86
2022/01/09 00:56:28;323570.00;1.08;558.43;0.00;0.00;0.62;;;;;8.90;1.00;;;;;;2263615;61;1201;-86
2022/01/09 00:58:55;344262.00;1.15;594.00;0.00;0.00;0.62;;;;;8.80;1.00;;;;;;2262228;61;1922;-86
2022/01/09 01:01:22;281440.00;0.94;486.01;0.00;0.00;0.62;;;;;8.80;1.00;;;;;;2258280;61;1376;-86
2022/01/09 01:03:49;243789.00;0.81;421.27;0.00;0.00;0.62;;;;;8.90;1.00;;;;;;2256628;61;1213;-86
2022/01/09 01:06:16;285171.00;0.95;492.43;0.00;0.00;0.62;;;;;8.80;1.00;;;;;;2256642;61;1081;-86
2022/01/09 01:08:42;295111.00;0.98;509.52;0.00;0.00;0.62;;;;;8.50;1.00;;;;;;2256602;61;1144;-86
2022/01/09 01:11:11;331282.00;1.10;571.69;0.00;0.00;0.62;;;;;8.60;1.00;;;;;;2256597;61;1375;-86
2022/01/09 01:13:38;282604.00;0.94;488.01;0.00;0.00;0.62;;;;;8.70;1.00;;;;;;2256607;61;1114;-85
2022/01/09 01:16:05;377905.00;1.26;651.82;0.00;0.00;0.62;;;;;8.30;1.00;;;;;;2257522;61;1085;-86
2022/01/09 01:18:32;429760.00;1.43;740.97;0.00;0.00;0.62;;;;;7.60;1.00;;;;;;2257296;61;1935;-87
2022/01/09 01:21:00;338851.00;1.13;584.70;0.00;0.00;0.62;;;;;7.90;1.00;;;;;;2257217;61;1411;-87
2022/01/09 01:23:27;313552.00;1.05;541.21;0.00;0.00;0.62;;;;;8.30;1.00;;;;;;2257524;61;1152;-87
2022/01/09 01:25:54;333488.00;1.11;575.48;0.00;0.00;0.62;;;;;8.70;1.00;;;;;;2257350;61;1164;-86
2022/01/09 01:28:23;295699.00;0.99;510.53;0.00;0.00;0.62;;;;;8.40;1.00;;;;;;2256991;61;1682;-86
2022/01/09 01:30:49;337396.00;1.12;582.20;0.00;0.00;0.62;;;;;8.40;1.00;;;;;;2259622;61;1247;-86
2022/01/09 01:33:16;307090.00;1.02;530.11;0.00;0.00;0.62;;;;;8.90;1.00;;;;;;2259679;61;1224;-87
2022/01/09 01:35:43;246168.00;0.82;425.36;0.00;0.00;0.62;;;;;9.10;1.00;;;;;;2260581;61;1155;-87
2022/01/09 01:38:10;308402.00;1.03;532.36;0.00;0.00;0.62;;;;;9.20;1.00;;;;;;2258693;61;2026;-87
2022/01/09 01:40:37;374782.00;1.25;646.46;0.00;0.00;0.62;;;;;8.80;1.00;;;;;;2257808;61;1769;-86
2022/01/09 01:43:04;393942.00;1.31;679.39;0.00;0.00;0.62;;;;;8.00;1.00;;;;;;2261632;61;1247;-86
2022/01/09 01:45:32;404826.00;1.35;698.10;0.00;0.00;0.62;;;;;7.90;1.00;;;;;;2260749;61;1094;-86
2022/01/09 01:48:05;259975.00;0.87;449.11;0.00;0.00;0.62;;;;;8.30;1.00;;;;;;2260825;61;1136;-86
2022/01/09 01:50:36;368153.00;1.23;635.06;0.00;0.00;0.62;;;;;8.90;1.00;;;;;;2261154;61;1159;-86
2022/01/09 01:53:05;338534.00;1.13;584.15;0.00;0.00;0.62;;;;;8.50;1.00;;;;;;2258410;61;1089;-86
2022/01/09 01:55:36;374761.00;1.25;646.42;0.00;0.00;0.62;;;;;8.50;1.00;;;;;;2256255;61;1165;-86
2022/01/09 01:58:04;410567.00;1.37;707.97;0.00;0.00;0.62;;;;;8.50;1.00;;;;;;2256705;61;2001;-87
2022/01/09 02:00:33;367483.00;1.22;633.91;0.00;0.00;0.62;;;;;8.70;1.00;;;;;;2256559;61;1184;-87
2022/01/09 02:03:00;248547.00;0.83;429.45;0.00;0.00;0.62;;;;;9.20;1.00;;;;;;2256553;61;1233;-87
2022/01/09 02:05:28;350525.00;1.17;604.76;0.00;0.00;0.62;;;;;9.40;1.00;;;;;;2256582;61;1500;-87
2022/01/09 02:07:58;427262.00;1.42;736.68;0.00;0.00;0.62;;;;;9.10;1.00;;;;;;2256427;61;1181;-87
2022/01/09 02:10:25;303277.00;1.01;523.55;0.00;0.00;0.62;;;;;9.00;1.00;;;;;;2256512;61;1720;-87
2022/01/09 02:12:56;333555.00;1.11;575.60;0.00;0.00;0.62;;;;;9.10;1.00;;;;;;2257028;61;1551;-87
2022/01/09 02:15:36;362197.00;1.21;624.82;0.00;0.00;0.62;;;;;9.60;1.00;;;;;;2256775;61;1694;-86
2022/01/09 02:18:05;457939.00;1.53;789.44;0.00;0.00;0.62;;;;;9.40;1.00;;;;;;2256229;61;2010;-87
2022/01/09 02:20:35;313703.00;1.05;541.47;0.00;0.00;0.62;;;;;9.10;1.00;;;;;;2256110;61;1199;-87
2022/01/09 02:23:02;436892.00;1.46;753.24;0.00;0.00;0.62;;;;;8.70;1.00;;;;;;2255803;61;1527;-87
2022/01/09 02:25:29;276659.00;0.92;477.79;0.00;0.00;0.62;;;;;8.60;1.00;;;;;;2256202;61;1180;-87
2022/01/09 02:27:57;346780.00;1.16;598.33;0.00;0.00;0.62;;;;;8.80;1.00;;;;;;2256182;61;1240;-87
2022/01/09 02:30:24;370281.00;1.23;638.72;0.00;0.00;0.62;;;;;8.90;1.00;;;;;;2257254;61;1266;-87
2022/01/09 02:32:51;357032.00;1.19;615.95;0.00;0.00;0.62;;;;;8.90;1.00;;;;;;2257332;61;1351;-87
2022/01/09 02:35:18;259903.00;0.87;448.98;0.00;0.00;0.62;;;;;9.00;1.00;;;;;;2257363;61;1204;-86
2022/01/09 02:37:46;342879.00;1.14;591.62;0.00;0.00;0.62;;;;;9.00;1.00;;;;;;2257675;61;1508;-86
2022/01/09 02:40:13;263729.00;0.88;455.56;0.00;0.00;0.62;;;;;8.70;1.00;;;;;;2263578;61;2011;-87
2022/01/09 02:42:40;219907.00;0.73;380.18;0.00;0.00;0.62;;;;;8.80;1.00;;;;;;2264036;61;1401;-87
2022/01/09 02:45:08;339819.00;1.13;586.36;0.00;0.00;0.62;;;;;8.80;1.00;;;;;;2264685;61;1088;-88
2022/01/09 02:47:36;375826.00;1.25;648.25;0.00;0.00;0.62;;;;;8.70;1.00;;;;;;2264673;61;1001;-86
2022/01/09 02:50:12;329331.00;1.10;568.34;0.00;0.00;0.62;;;;;8.40;1.00;;;;;;2261531;61;1135;-85
2022/01/09 02:52:50;406388.00;1.35;700.79;0.00;0.00;0.62;;;;;8.50;1.00;;;;;;2264758;61;1380;-89
2022/01/09 02:55:19;358117.00;1.19;617.81;0.00;0.00;0.62;;;;;8.70;1.00;;;;;;2264285;61;1041;-87
2022/01/09 02:57:48;328898.00;1.10;567.59;0.00;0.00;0.62;;;;;8.70;1.00;;;;;;2256041;61;1275;-87
2022/01/09 03:00:19;251988.00;0.84;435.37;0.00;0.00;0.62;;;;;8.60;1.00;;;;;;2256165;61;2038;-84
2022/01/09 03:02:46;642271.00;2.14;1107.27;23624.00;0.08;41.55;;;;;8.90;1.00;;;;;;2257387;61;1516;-85
2022/01/09 03:05:13;312337.00;1.04;539.13;0.00;0.00;0.62;;;;;9.00;1.00;;;;;;2257128;61;1153;-85
2022/01/09 03:07:42;356274.00;1.19;614.64;0.00;0.00;0.62;;;;;9.30;1.00;;;;;;2257351;61;1068;-86
2022/01/09 03:10:11;348706.00;1.16;601.64;0.00;0.00;0.62;;;;;9.00;1.00;;;;;;2256999;61;1723;-85
2022/01/09 03:12:40;317815.00;1.06;548.54;0.00;0.00;0.62;;;;;8.90;1.00;;;;;;2257135;61;1388;-86
2022/01/09 03:15:08;290120.00;0.97;500.94;0.00;0.00;0.62;;;;;8.70;1.00;;;;;;2257332;61;1228;-86
2022/01/09 03:17:36;282066.00;0.94;487.09;0.00;0.00;0.62;;;;;8.40;1.00;;;;;;2257401;61;1514;-85
2022/01/09 03:20:06;292765.00;0.98;505.48;0.00;0.00;0.62;;;;;8.40;1.00;;;;;;2257440;61;1962;-86
2022/01/09 03:22:33;542668.00;1.81;935.32;86374.00;0.29;150.05;;;;;8.70;1.00;;;;;;2257842;61;1526;-86
2022/01/09 03:25:00;465061.00;1.55;801.69;88567.00;0.30;153.83;;;;;8.90;1.00;;;;;;2257934;61;1097;-85
2022/01/09 03:27:27;423015.00;1.41;729.37;86856.00;0.29;150.88;;;;;9.00;1.00;;;;;;2257869;61;1088;-85
2022/01/09 03:29:55;482011.00;1.61;830.86;89989.00;0.30;156.29;;;;;9.00;1.00;;;;;;2257953;61;1095;-85
2022/01/09 03:32:22;442343.00;1.47;762.61;92075.00;0.31;159.89;;;;;8.80;1.00;;;;;;2257056;61;1267;-87
2022/01/09 03:34:49;567787.00;1.89;978.63;89801.00;0.30;155.96;;;;;8.70;1.00;;;;;;2257225;61;1132;-85
2022/01/09 03:37:16;506851.00;1.69;873.62;105290.00;0.35;182.70;;;;;8.70;1.00;;;;;;2257945;61;1097;-85
2022/01/09 03:39:43;476582.00;1.59;821.52;87173.00;0.29;151.43;;;;;8.60;1.00;;;;;;2257535;61;1940;-87
2022/01/09 03:42:10;478614.00;1.60;825.01;91774.00;0.31;159.37;;;;;9.00;1.00;;;;;;2257196;61;1419;-85
2022/01/09 03:44:37;424079.00;1.41;731.20;94412.00;0.31;163.93;;;;;9.10;1.00;;;;;;2257713;61;1136;-85
2022/01/09 03:47:05;440365.00;1.47;759.21;74310.00;0.25;129.21;;;;;8.70;1.00;;;;;;2257848;61;1169;-85
2022/01/09 03:49:32;519415.00;1.73;895.26;91789.00;0.31;159.40;;;;;8.50;1.00;;;;;;2257884;61;1490;-86
2022/01/09 03:52:00;284513.00;0.95;491.30;0.00;0.00;0.62;;;;;8.30;1.00;;;;;;2257923;61;1351;-86
2022/01/09 03:54:27;118602208.00;395.34;67580096.00;118203840.00;394.01;66900784.00;;;;;8.30;1.00;;;;;;2257648;61;1113;-85
2022/01/09 03:56:54;329465.00;1.10;568.57;89935.00;0.30;156.20;;;;;8.70;1.00;;;;;;2258079;61;1167;-86
2022/01/09 03:59:21;117221568.00;390.74;65245316.00;0.00;0.00;0.62;;;;;8.80;1.00;;;;;;2258291;61;1929;-86
2022/01/09 04:01:48;293473.00;0.98;506.70;0.00;0.00;0.62;;;;;8.50;1.00;;;;;;2258330;61;1710;-86
2022/01/09 04:04:16;279475.00;0.93;482.63;0.00;0.00;0.62;;;;;8.30;1.00;;;;;;2262227;61;1206;-86
2022/01/09 04:06:46;311145.00;1.04;537.08;0.00;0.00;0.62;;;;;8.40;1.00;;;;;;2263388;61;1169;-86
2022/01/09 04:09:19;296427.00;0.99;511.78;0.00;0.00;0.62;;;;;7.90;1.00;;;;;;2263354;61;1128;-86
2022/01/09 04:11:46;522582.00;1.74;900.71;92408.00;0.31;160.47;;;;;7.80;1.00;;;;;;2257767;61;1462;-86
2022/01/09 04:14:13;541085.00;1.80;932.59;91628.00;0.31;159.12;;;;;7.80;1.00;;;;;;2256974;61;1809;-86
2022/01/09 04:16:41;378266.00;1.26;652.44;0.00;0.00;0.62;;;;;8.10;1.00;;;;;;2257210;61;1144;-86
2022/01/09 04:19:12;301304.00;1.00;520.16;0.00;0.00;0.62;;;;;8.10;1.00;;;;;;2256862;61;1918;-86
2022/01/09 04:21:42;300288.00;1.00;518.42;0.00;0.00;0.62;;;;;8.10;1.00;;;;;;2257280;61;1479;-86
2022/01/09 04:24:09;275134.00;0.92;475.17;0.00;0.00;0.62;;;;;8.00;1.00;;;;;;2257333;61;1674;-86
2022/01/09 04:26:36;420771.00;1.40;725.52;0.00;0.00;0.62;;;;;8.00;1.00;;;;;;2257399;61;1106;-86
2022/01/09 04:29:04;326977.00;1.09;564.29;0.00;0.00;0.62;;;;;7.90;1.00;;;;;;2256766;61;1149;-86
2022/01/09 04:31:31;354066.00;1.18;610.85;0.00;0.00;0.62;;;;;8.10;1.00;;;;;;2257544;61;1685;-86
2022/01/09 04:33:58;330909.00;1.10;571.05;0.00;0.00;0.62;;;;;7.90;1.00;;;;;;2258677;61;1081;-86
2022/01/09 04:36:25;373514.00;1.25;644.28;0.00;0.00;0.62;;;;;7.60;1.00;;;;;;2257774;61;1129;-85
2022/01/09 04:38:54;269623.00;0.90;465.70;0.00;0.00;0.62;;;;;7.80;1.00;;;;;;2257916;61;1998;-86
2022/01/09 04:41:21;378789.00;1.26;653.34;0.00;0.00;0.62;;;;;7.60;1.00;;;;;;2257761;61;1270;-85
2022/01/09 04:43:49;280358.00;0.93;484.15;0.00;0.00;0.62;;;;;7.60;1.00;;;;;;2258053;61;1126;-86
2022/01/09 04:46:23;351392.00;1.17;606.25;0.00;0.00;0.62;;;;;7.80;1.00;;;;;;2258671;61;1099;-87
2022/01/09 04:48:52;262583.00;0.88;453.59;0.00;0.00;0.62;;;;;7.90;1.00;;;;;;2257600;61;1169;-85
2022/01/09 04:51:19;265582.00;0.89;458.75;0.00;0.00;0.62;;;;;8.00;1.00;;;;;;2258203;61;1319;-88
2022/01/09 04:53:46;287972.00;0.96;497.24;0.00;0.00;0.62;;;;;8.00;1.00;;;;;;2257335;61;1390;-86
2022/01/09 04:56:15;357832.00;1.19;617.32;0.00;0.00;0.62;;;;;7.60;1.00;;;;;;2256590;61;1115;-87
2022/01/09 04:58:42;295988.00;0.99;511.02;0.00;0.00;0.62;;;;;7.40;1.00;;;;;;2257031;61;1943;-87
2022/01/09 05:01:09;381516.00;1.27;658.03;0.00;0.00;0.62;;;;;7.50;1.00;;;;;;2256861;61;1384;-85
2022/01/09 05:03:36;430434.00;1.43;742.13;22877.00;0.08;40.25;;;;;7.40;1.00;;;;;;2256793;61;1170;-85
2022/01/09 05:06:02;337488.00;1.12;582.36;0.00;0.00;0.62;;;;;7.20;1.50;;;;;;2257052;61;1096;-85
2022/01/09 05:08:29;343750.00;1.15;593.12;0.00;0.00;0.62;;;;;7.40;1.00;;;;;;2257549;61;1173;-85
2022/01/09 05:10:56;469074.00;1.56;808.60;0.00;0.00;0.62;;;;;7.30;1.00;;;;;;2257649;61;1372;-85
2022/01/09 05:13:24;382951.00;1.28;660.50;0.00;0.00;0.62;;;;;7.10;1.00;;;;;;2257780;61;1192;-84
2022/01/09 05:15:51;421018.00;1.40;725.94;0.00;0.00;0.62;;;;;7.30;1.00;;;;;;2258126;61;1219;-85
2022/01/09 05:18:19;362160.00;1.21;624.76;0.00;0.00;0.62;;;;;7.30;1.00;;;;;;2258107;61;1283;-86
2022/01/09 05:20:46;457700.00;1.53;789.03;0.00;0.00;0.62;;;;;7.00;1.00;;;;;;2258632;61;1950;-86
2022/01/09 05:23:14;363717.00;1.21;627.44;0.00;0.00;0.62;;;;;6.80;1.00;;;;;;2258841;61;1116;-86
2022/01/09 05:25:41;413843.00;1.38;713.60;0.00;0.00;0.62;;;;;6.90;1.00;;;;;;2262989;61;1123;-85
2022/01/09 05:28:08;498469.00;1.66;859.19;0.00;0.00;0.62;;;;;6.80;1.00;;;;;;2262962;61;1202;-86
2022/01/09 05:30:36;365207.00;1.22;630.00;0.00;0.00;0.62;;;;;7.10;1.00;;;;;;2262190;61;1236;-87
2022/01/09 05:33:03;516773.00;1.72;890.71;0.00;0.00;0.62;;;;;7.20;1.00;;;;;;2264318;61;1137;-86
2022/01/09 05:35:30;425118.00;1.42;732.99;0.00;0.00;0.62;;;;;7.20;1.00;;;;;;2260607;61;1503;-85
2022/01/09 05:37:57;456440.00;1.52;786.86;0.00;0.00;0.62;;;;;7.30;1.00;;;;;;2257364;61;1123;-85
2022/01/09 05:40:24;384898.00;1.28;663.84;0.00;0.00;0.62;;;;;6.70;1.00;;;;;;2257204;61;2010;-86
2022/01/09 05:42:51;322425.00;1.07;556.47;0.00;0.00;0.62;;;;;7.00;1.00;;;;;;2256905;61;1494;-86
2022/01/09 05:45:18;291991.00;0.97;504.15;0.00;0.00;0.62;;;;;7.40;1.00;;;;;;2256885;61;1136;-85
2022/01/09 05:47:47;310924.00;1.04;536.70;0.00;0.00;0.62;;;;;7.70;1.00;;;;;;2257519;61;1233;-85
2022/01/09 05:50:14;347695.00;1.16;599.90;0.00;0.00;0.62;;;;;7.30;1.00;;;;;;2257000;61;1191;-85
2022/01/09 05:52:41;493328.00;1.64;850.34;0.00;0.00;0.62;;;;;6.70;1.00;;;;;;2257216;61;1291;-85
2022/01/09 05:55:09;582320.00;1.94;1003.70;0.00;0.00;0.62;;;;;6.10;1.00;;;;;;2257411;61;1071;-85
2022/01/09 05:57:36;363891.00;1.21;627.74;0.00;0.00;0.62;;;;;6.10;4.00;;;;;;2257465;61;1062;-86
2022/01/09 06:00:04;461932.00;1.54;796.31;0.00;0.00;0.62;;;;;6.00;1.00;;;;;;2257589;61;2021;-87
2022/01/09 06:02:31;318904.00;1.06;550.41;0.00;0.00;0.62;;;;;5.80;1.20;;;;;;2257537;61;1320;-86
2022/01/09 06:04:59;309219.00;1.03;533.77;0.00;0.00;0.62;;;;;5.80;1.00;;;;;;2257715;61;1264;-86
2022/01/09 06:07:26;451829.00;1.51;778.93;0.00;0.00;0.62;;;;;5.70;1.20;;;;;;2257264;61;1233;-86
2022/01/09 06:09:53;376955.00;1.26;650.19;0.00;0.00;0.62;;;;;6.00;4.10;;;;;;2256630;61;1139;-86
2022/01/09 06:12:20;458971.00;1.53;791.21;0.00;0.00;0.62;;;;;6.20;1.00;;;;;;2256571;61;1321;-86
2022/01/09 06:14:48;407100.00;1.36;702.01;0.00;0.00;0.62;;;;;5.80;1.00;;;;;;2256540;61;1115;-85
2022/01/09 06:17:14;426259.00;1.42;734.95;0.00;0.00;0.62;;;;;6.00;1.00;;;;;;2256842;61;1134;-85
2022/01/09 06:19:41;412817.00;1.38;711.84;0.00;0.00;0.62;;;;;6.00;2.00;;;;;;2257426;61;2011;-86
2022/01/09 06:22:10;395175.00;1.32;681.51;0.00;0.00;0.62;;;;;6.10;1.30;;;;;;2257830;61;1363;-85
2022/01/09 06:24:37;422095.00;1.41;727.79;0.00;0.00;0.62;;;;;5.90;2.10;;;;;;2257895;61;1106;-86
2022/01/09 06:27:04;367120.00;1.22;633.29;0.00;0.00;0.62;;;;;5.80;1.60;;;;;;2257651;61;1114;-86
2022/01/09 06:29:31;404456.00;1.35;697.47;0.00;0.00;0.62;;;;;5.90;3.20;;;;;;2257105;61;1053;-86
2022/01/09 06:31:58;380062.00;1.27;655.53;0.00;0.00;0.62;;;;;6.20;5.00;;;;;;2257551;61;1404;-86
2022/01/09 06:34:25;286813.00;0.96;495.25;0.00;0.00;0.62;;;;;6.50;1.30;;;;;;2257676;61;1575;-86
2022/01/09 06:36:52;458367.00;1.53;790.18;0.00;0.00;0.62;;;;;6.30;1.00;;;;;;2258047;61;1027;-87
2022/01/09 06:39:20;370594.00;1.24;639.26;0.00;0.00;0.62;;;;;6.20;1.00;;;;;;2257726;61;1941;-86
2022/01/09 06:41:47;333914.00;1.11;576.21;0.00;0.00;0.62;;;;;6.10;1.00;;;;;;2258064;61;1269;-86
2022/01/09 06:44:14;339979.00;1.13;586.64;0.00;0.00;0.62;;;;;6.20;1.00;;;;;;2257681;61;1130;-86
2022/01/09 06:46:41;414303.00;1.38;714.40;0.00;0.00;0.62;;;;;6.00;1.00;;;;;;2257589;61;1185;-86
2022/01/09 06:49:07;259819.00;0.87;448.84;0.00;0.00;0.62;;;;;6.20;2.10;;;;;;2257509;61;1190;-86
2022/01/09 06:51:34;432230.00;1.44;745.22;0.00;0.00;0.62;;;;;6.20;1.00;;;;;;2257332;61;1632;-86
2022/01/09 06:54:01;349800.00;1.17;603.52;0.00;0.00;0.62;;;;;6.00;1.00;;;;;;2257128;61;1716;-86
2022/01/09 06:56:30;354316.00;1.18;611.28;0.00;0.00;0.62;;;;;5.80;4.80;;;;;;2256948;61;1108;-86
2022/01/09 06:58:57;303688.00;1.01;524.26;0.00;0.00;0.62;;;;;5.70;2.00;;;;;;2257153;61;1129;-86
2022/01/09 07:01:24;416162.00;1.39;717.59;0.00;0.00;0.62;;;;;5.90;1.00;;;;;;2257164;61;2018;-86
2022/01/09 07:03:51;416040.00;1.39;717.38;0.00;0.00;0.62;;;;;6.00;1.00;;;;;;2257056;61;1042;-86
2022/01/09 07:06:18;355236.00;1.18;612.86;0.00;0.00;0.62;;;;;5.90;1.00;;;;;;2257154;61;1247;-86
2022/01/09 07:08:45;399764.00;1.33;689.40;0.00;0.00;0.62;;;;;5.80;1.00;;;;;;2257245;61;1165;-86
2022/01/09 07:11:12;485229.00;1.62;836.40;0.00;0.00;0.62;;;;;5.90;1.90;;;;;;2257031;61;1388;-85
2022/01/09 07:13:40;396245.00;1.32;683.35;0.00;0.00;0.62;;;;;6.00;1.00;;;;;;2257819;61;1145;-85
2022/01/09 07:16:07;418065.00;1.39;720.86;0.00;0.00;0.62;;;;;5.70;1.60;;;;;;2257529;61;1209;-85
2022/01/09 07:18:34;419793.00;1.40;723.83;0.00;0.00;0.62;;;;;5.60;1.30;;;;;;2257874;61;1233;-86
2022/01/09 07:21:02;400744.00;1.34;691.08;0.00;0.00;0.62;;;;;5.90;2.40;;;;;;2257447;61;2017;-86
2022/01/09 07:23:29;416260.00;1.39;717.76;0.00;0.00;0.62;;;;;6.30;1.20;;;;;;2258661;61;1159;-86
2022/01/09 07:25:56;355319.00;1.18;613.00;0.00;0.00;0.62;;;;;6.30;1.00;;;;;;2261845;61;1129;-86
2022/01/09 07:28:23;426914.00;1.42;736.08;0.00;0.00;0.62;;;;;6.20;1.00;;;;;;2263342;61;1109;-86
2022/01/09 07:30:51;452148.00;1.51;779.48;0.00;0.00;0.62;;;;;6.60;1.00;;;;;;2263264;61;1302;-86
2022/01/09 07:33:19;430353.00;1.43;741.99;0.00;0.00;0.62;;;;;6.90;1.00;;;;;;2260647;61;1161;-86
2022/01/09 07:35:46;397884.00;1.33;686.17;0.00;0.00;0.62;;;;;6.60;1.00;;;;;;2258426;61;1062;-85
2022/01/09 07:38:12;349840.00;1.17;603.59;0.00;0.00;0.62;;;;;7.00;1.00;;;;;;2258199;61;1811;-86
2022/01/09 07:40:39;322802.00;1.08;557.11;0.00;0.00;0.62;;;;;7.00;1.00;;;;;;2258811;61;1990;-86
2022/01/09 07:43:06;251209.00;0.84;434.03;0.00;0.00;0.62;;;;;7.40;1.00;;;;;;2263424;61;1177;-86
2022/01/09 07:45:33;286223.00;0.95;494.24;0.00;0.00;0.62;;;;;7.50;1.00;;;;;;2262329;61;1217;-86
2022/01/09 07:48:01;246504.00;0.82;425.94;0.00;0.00;0.62;;;;;7.60;1.00;;;;;;2263049;61;1233;-87
2022/01/09 07:50:29;307734.00;1.03;531.21;0.00;0.00;0.62;;;;;7.40;1.00;;;;;;2259253;61;1146;-86
2022/01/09 07:52:57;393266.00;1.31;678.23;0.00;0.00;0.62;;;;;7.40;1.00;;;;;;2259569;61;1348;-86
2022/01/09 07:55:24;439262.00;1.46;757.31;0.00;0.00;0.62;;;;;7.10;1.00;;;;;;2262663;61;1103;-85
2022/01/09 07:57:52;396689.00;1.32;684.11;0.00;0.00;0.62;;;;;7.10;1.00;;;;;;2262565;61;1129;-86
2022/01/09 08:00:20;364927.00;1.22;629.52;0.00;0.00;0.62;;;;;7.20;1.00;;;;;;2262170;61;1997;-87
2022/01/09 08:02:48;505923.00;1.69;872.02;0.00;0.00;0.62;;;;;7.50;1.00;;;;;;2263807;61;1372;-84
2022/01/09 08:05:18;311585.00;1.04;537.83;0.00;0.00;0.62;;;;;6.90;1.00;;;;;;2263272;61;1033;-85
2022/01/09 08:07:46;393760.00;1.31;679.08;0.00;0.00;0.62;;;;;6.70;1.00;;;;;;2263685;61;1961;-86
2022/01/09 08:10:13;342463.00;1.14;590.91;0.00;0.00;0.62;;;;;7.00;1.00;;;;;;2264557;61;1161;-85
2022/01/09 08:12:40;479878.00;1.60;827.19;0.00;0.00;0.62;;;;;7.30;1.00;;;;;;2264526;61;1390;-87
2022/01/09 08:15:08;599250.00;2.00;1032.92;32915.00;0.11;57.63;;;;;7.30;1.00;;;;;;2261391;61;1134;-86
2022/01/09 08:17:35;517503.00;1.73;891.96;0.00;0.00;0.62;;;;;7.50;1.00;;;;;;2257641;61;1117;-86
2022/01/09 08:20:02;297834.00;0.99;514.20;0.00;0.00;0.62;;;;;7.60;1.00;;;;;;2256751;61;1948;-86
2022/01/09 08:22:32;301856.00;1.01;521.11;0.00;0.00;0.62;;;;;7.60;1.00;;;;;;2256032;61;1640;-86
2022/01/09 08:24:59;236650.00;0.79;408.99;0.00;0.00;0.62;;;;;7.60;1.00;;;;;;2257059;61;1241;-86
2022/01/09 08:27:26;339685.00;1.13;586.13;0.00;0.00;0.62;;;;;7.80;1.00;;;;;;2256954;61;1092;-86
2022/01/09 08:29:53;308611.00;1.03;532.72;0.00;0.00;0.62;;;;;7.50;1.00;;;;;;2256732;61;1032;-86
2022/01/09 08:32:20;211604.00;0.71;365.90;0.00;0.00;0.62;;;;;7.10;1.00;;;;;;2256442;61;1376;-86
2022/01/09 08:34:47;252140.00;0.84;435.63;0.00;0.00;0.62;;;;;7.60;1.00;;;;;;2255864;61;1157;-86
2022/01/09 08:37:14;371506.00;1.24;640.83;0.00;0.00;0.62;;;;;7.50;1.00;;;;;;2256962;61;1105;-84
2022/01/09 08:39:44;433629.00;1.45;747.63;37861.00;0.13;66.19;;;;;7.40;1.00;;;;;;2256789;61;1197;-85
2022/01/09 08:42:11;316668.00;1.06;546.57;0.00;0.00;0.62;;;;;7.00;1.00;;;;;;2256604;61;1273;-85
2022/01/09 08:44:39;423500.00;1.41;730.21;0.00;0.00;0.62;;;;;7.10;1.00;;;;;;2258351;61;1693;-85
2022/01/09 08:47:06;489338.00;1.63;843.47;0.00;0.00;0.62;;;;;6.90;1.00;;;;;;2264035;61;1066;-85
2022/01/09 08:49:33;451853.00;1.51;778.97;0.00;0.00;0.62;;;;;7.00;1.00;;;;;;2264456;61;1216;-87
2022/01/09 08:52:00;366498.00;1.22;632.22;0.00;0.00;0.62;;;;;7.00;1.00;;;;;;2264329;61;1387;-86
2022/01/09 08:54:27;432679.00;1.44;745.99;2294.00;0.01;4.60;;;;;7.20;1.00;;;;;;2263234;61;1048;-86
2022/01/09 08:56:55;438711.00;1.46;756.37;0.00;0.00;0.62;;;;;7.40;1.00;;;;;;2255725;61;1760;-83
2022/01/09 08:59:22;364624.00;1.22;629.00;0.00;0.00;0.62;;;;;7.30;1.00;;;;;;2255994;61;1144;-83
2022/01/09 09:01:50;305970.00;1.02;528.18;0.00;0.00;0.62;;;;;7.50;1.00;;;;;;2257374;61;2013;-86
2022/01/09 09:04:17;366577.00;1.22;632.35;0.00;0.00;0.62;;;;;7.60;1.00;;;;;;2256704;61;1096;-86
2022/01/09 09:06:45;354920.00;1.18;612.32;0.00;0.00;0.62;;;;;7.60;1.00;;;;;;2255734;61;1621;-86
2022/01/09 09:09:12;466032.00;1.55;803.36;0.00;0.00;0.62;;;;;7.40;1.00;;;;;;2256445;61;1189;-84
2022/01/09 09:11:40;334432.00;1.11;577.10;0.00;0.00;0.62;;;;;7.30;1.00;;;;;;2257328;61;1302;-83
2022/01/09 09:14:08;373885.00;1.25;644.91;0.00;0.00;0.62;;;;;7.00;1.00;;;;;;2257302;61;1153;-84
2022/01/09 09:16:35;118745104.00;395.82;67824880.00;0.00;0.00;0.62;;;;;6.70;1.00;;;;;;2257301;61;1574;-84
2022/01/09 09:19:02;468707.00;1.56;807.96;0.00;0.00;0.62;;;;;6.90;1.00;;;;;;2257543;61;1180;-85
2022/01/09 09:21:29;332920.00;1.11;574.50;0.00;0.00;0.62;;;;;7.10;1.00;;;;;;2259950;61;1938;-85
2022/01/09 09:23:56;384882.00;1.28;663.82;0.00;0.00;0.62;;;;;7.00;1.00;;;;;;2261917;61;1172;-84
2022/01/09 09:26:23;507418.00;1.69;874.60;0.00;0.00;0.62;;;;;6.80;1.00;;;;;;2262252;61;1215;-85
2022/01/09 09:28:50;420336.00;1.40;724.77;0.00;0.00;0.62;;;;;6.90;1.00;;;;;;2258281;61;1201;-85
2022/01/09 09:31:18;440572.00;1.47;759.57;0.00;0.00;0.62;;;;;7.20;1.00;;;;;;2256249;61;1773;-84
2022/01/09 09:33:45;389121.00;1.30;671.10;0.00;0.00;0.62;;;;;7.40;1.00;;;;;;2256726;61;1180;-84
2022/01/09 09:36:12;417177.00;1.39;719.34;0.00;0.00;0.62;;;;;7.70;1.00;;;;;;2256317;61;1224;-84
2022/01/09 09:38:39;345985.00;1.15;596.96;0.00;0.00;0.62;;;;;7.20;1.00;;;;;;2256574;61;1307;-85
2022/01/09 09:41:06;382183.00;1.27;659.18;0.00;0.00;0.62;;;;;7.30;1.00;;;;;;2256148;61;1923;-84
2022/01/09 09:43:34;375366.00;1.25;647.46;0.00;0.00;0.62;;;;;7.40;1.00;;;;;;2255710;61;1260;-85
2022/01/09 09:46:00;390832.00;1.30;674.04;0.00;0.00;0.62;;;;;7.30;1.00;;;;;;2256429;61;1087;-85
2022/01/09 09:48:29;439149.00;1.46;757.12;0.00;0.00;0.62;;;;;7.00;1.00;;;;;;2256117;61;1151;-85
2022/01/09 09:50:56;981241.00;3.27;1699.28;76086.00;0.25;132.28;;;;;7.20;1.00;;;;;;2256255;61;1358;-85
2022/01/09 09:53:23;420625.00;1.40;725.27;0.00;0.00;0.62;;;;;7.30;1.00;;;;;;2256346;61;1167;-85
2022/01/09 09:55:53;365397.00;1.22;630.33;0.00;0.00;0.62;;;;;7.20;1.00;;;;;;2256805;61;1082;-85
2022/01/09 09:58:22;406014.00;1.35;700.14;0.00;0.00;0.62;;;;;7.10;1.00;;;;;;2256689;61;1151;-84
2022/01/09 10:00:52;360108.00;1.20;621.23;0.00;0.00;0.62;;;;;7.20;1.00;;;;;;2256432;61;1922;-84
2022/01/09 10:03:29;562498.00;1.87;969.51;0.00;0.00;0.62;;;;;7.40;1.00;;;;;;2256211;61;1149;-84